Time;durP1;ratioP1;P1;durP2;ratioP2;P2;SDS_P1;SDS_P2;PMS_P1;PMS_P2;Temp;Humidity;BMP_temperature;BMP_pressure;BME280_temperature;BME280_humidity;BME280_pressure;Samples;Min_cycle;Max_cycle;Signal;HPM_P1;HPM_P2
2022/11/05 00:11:05;;;;;;;;;;;;;;;21.05;50.07;101429.00;7268560;19;153137;-56
2022/11/05 00:19:05;;;;;;;;;;;;;;;21.07;50.68;101418.31;7268776;19;152591;-56
2022/11/05 00:26:49;;;;;;;;;;;;;;;21.09;50.65;101423.63;7274142;19;154183;-56
2022/11/05 00:29:17;;;;;;;;;;;;;;;21.08;50.20;101422.78;7266158;19;154227;-56
2022/11/05 00:31:43;;;;;;;;;;;;;;;21.09;50.74;101427.25;7270321;19;154266;-56
2022/11/05 00:34:10;;;;;;;;;;;;;;;21.10;50.37;101436.53;7266277;19;153663;-56
2022/11/05 00:36:37;;;;;;;;;;;;;;;21.09;50.05;101434.84;7271978;19;154010;-56
2022/11/05 00:39:04;;;;;;;;;;;;;;;21.08;50.73;101436.81;7266486;19;154139;-56
2022/11/05 00:41:31;;;;;;;;;;;;;;;21.10;50.27;101439.34;7268049;19;152308;-56
2022/11/05 00:46:35;;;;;;;;;;;;;;;21.08;50.77;101442.44;7268354;19;154177;-56
2022/11/05 00:51:39;;;;;;;;;;;;;;;21.09;50.57;101438.50;7265115;19;153941;-57
2022/11/05 00:54:06;;;;;;;;;;;;;;;21.08;50.20;101431.19;7267225;19;153503;-57
2022/11/05 00:56:33;;;;;;;;;;;;;;;21.10;50.50;101436.53;7267001;19;154963;-57
2022/11/05 00:59:00;;;;;;;;;;;;;;;21.10;50.33;101443.00;7265152;19;155311;-56
2022/11/05 01:01:27;;;;;;;;;;;;;;;21.09;50.21;101437.66;7268362;19;153454;-57
2022/11/05 01:03:54;;;;;;;;;;;;;;;21.08;50.55;101452.84;7268312;19;153769;-57
2022/11/05 01:06:21;;;;;;;;;;;;;;;21.08;50.70;101444.41;7270459;19;154462;-57
2022/11/05 01:08:48;;;;;;;;;;;;;;;21.08;50.83;101441.59;7268537;19;153118;-57
2022/11/05 01:11:31;;;;;;;;;;;;;;;21.09;50.74;101440.47;7272200;19;153782;-56
2022/11/05 01:14:00;;;;;;;;;;;;;;;21.09;50.55;101426.41;7263491;19;152917;-57
2022/11/05 01:16:28;;;;;;;;;;;;;;;21.07;50.94;101434.34;7271053;19;154290;-57
2022/11/05 01:18:55;;;;;;;;;;;;;;;21.06;50.54;101427.88;7269612;19;153859;-57
2022/11/05 01:21:22;;;;;;;;;;;;;;;21.06;50.48;101439.13;7266598;19;152983;-57
2022/11/05 01:23:49;;;;;;;;;;;;;;;21.06;50.94;101432.66;7266713;19;152796;-57
2022/11/05 01:26:16;;;;;;;;;;;;;;;21.04;50.92;101432.09;7266609;19;155726;-57
2022/11/05 01:28:43;;;;;;;;;;;;;;;21.05;50.99;101425.34;7264791;19;154166;-57
2022/11/05 01:31:10;;;;;;;;;;;;;;;21.05;51.22;101439.41;7273855;19;153543;-57
2022/11/05 01:33:37;;;;;;;;;;;;;;;21.04;51.23;101432.94;7268230;19;153799;-56
2022/11/05 01:36:04;;;;;;;;;;;;;;;21.05;51.13;101430.97;7265068;19;153551;-55
2022/11/05 01:38:31;;;;;;;;;;;;;;;21.04;51.15;101424.50;7268146;19;153728;-55
2022/11/05 01:40:57;;;;;;;;;;;;;;;21.03;51.05;101422.03;7265294;19;153376;-55
2022/11/05 01:43:24;;;;;;;;;;;;;;;21.04;51.02;101418.06;7268258;19;153828;-55
2022/11/05 01:45:54;;;;;;;;;;;;;;;21.04;51.25;101409.63;7265548;19;153456;-55
2022/11/05 01:48:26;;;;;;;;;;;;;;;21.04;51.06;101423.69;7268690;19;152963;-55
2022/11/05 01:50:58;;;;;;;;;;;;;;;21.05;51.06;101419.75;7269440;19;154199;-55
2022/11/05 01:53:29;;;;;;;;;;;;;;;21.05;51.07;101423.38;7273800;19;156168;-56
2022/11/05 01:56:02;;;;;;;;;;;;;;;21.05;50.91;101416.94;7267547;19;153677;-56
2022/11/05 01:58:35;;;;;;;;;;;;;;;21.05;51.20;101414.13;7267277;19;154274;-56
2022/11/05 02:01:03;;;;;;;;;;;;;;;21.04;50.88;101415.25;7266438;19;153014;-56
2022/11/05 02:03:30;;;;;;;;;;;;;;;21.03;50.88;101422.03;7266667;19;153505;-56
2022/11/05 02:05:58;;;;;;;;;;;;;;;21.02;50.99;101421.19;7264745;19;154304;-56
2022/11/05 02:08:38;;;;;;;;;;;;;;;21.02;50.92;101420.34;7266091;19;153762;-56
2022/11/05 02:11:05;;;;;;;;;;;;;;;21.00;50.88;101429.06;7266712;19;155233;-56
2022/11/05 02:13:32;;;;;;;;;;;;;;;20.98;50.66;101417.31;7262774;19;153975;-56
2022/11/05 02:16:03;;;;;;;;;;;;;;;20.99;50.78;101420.94;7273881;19;153140;-56
2022/11/05 02:18:40;;;;;;;;;;;;;;;20.96;51.12;101411.13;7267126;19;153490;-56
2022/11/05 02:21:16;;;;;;;;;;;;;;;20.95;50.96;101400.19;7265458;19;153343;-56
2022/11/05 02:23:52;;;;;;;;;;;;;;;20.94;51.14;101406.97;7265563;19;153419;-56
2022/11/05 02:26:20;;;;;;;;;;;;;;;20.92;50.88;101398.00;7264689;19;153486;-56
2022/11/05 02:29:01;;;;;;;;;;;;;;;20.90;50.98;101400.25;7263865;19;152410;-56
2022/11/05 02:31:35;;;;;;;;;;;;;;;20.89;51.10;101398.59;7265239;19;153596;-56
2022/11/05 02:34:11;;;;;;;;;;;;;;;20.88;51.43;101391.31;7263204;19;153469;-56
2022/11/05 02:36:47;;;;;;;;;;;;;;;20.86;51.10;101394.41;7263132;19;154443;-56
2022/11/05 02:39:21;;;;;;;;;;;;;;;20.84;51.23;101397.53;7270163;19;153834;-55
2022/11/05 02:41:57;;;;;;;;;;;;;;;20.84;51.11;101396.69;7259479;19;153645;-55
2022/11/05 02:44:32;;;;;;;;;;;;;;;20.83;51.31;101398.66;7263041;19;154880;-55
2022/11/05 02:47:02;;;;;;;;;;;;;;;20.81;51.41;101392.50;7262943;19;153147;-55
2022/11/05 02:49:38;;;;;;;;;;;;;;;20.79;51.39;101397.59;7263941;19;154405;-55
2022/11/05 02:52:14;;;;;;;;;;;;;;;20.78;51.50;101406.31;7264271;19;153593;-55
2022/11/05 02:54:44;;;;;;;;;;;;;;;20.77;51.21;101405.47;7264363;19;154031;-55
2022/11/05 02:57:11;;;;;;;;;;;;;;;20.74;51.38;101411.69;7264957;19;153541;-55
2022/11/05 02:59:38;;;;;;;;;;;;;;;20.74;51.34;101417.31;7263538;19;153647;-55
2022/11/05 03:02:05;;;;;;;;;;;;;;;20.71;51.43;101420.72;7271911;19;153924;-55
2022/11/05 03:04:32;;;;;;;;;;;;;;;20.71;51.80;101423.53;7263494;19;154230;-56
2022/11/05 03:07:07;;;;;;;;;;;;;;;20.70;51.85;101421.84;7259417;19;153220;-55
2022/11/05 03:09:37;;;;;;;;;;;;;;;20.67;52.02;101408.38;7250061;19;152456;-55
2022/11/05 03:12:11;;;;;;;;;;;;;;;20.66;51.97;101403.09;7252730;19;153080;-55
2022/11/05 03:14:48;;;;;;;;;;;;;;;20.65;51.79;101407.88;7251245;19;154745;-55
2022/11/05 03:17:28;;;;;;;;;;;;;;;20.64;51.92;101402.53;7249460;19;153649;-55
2022/11/05 03:20:04;;;;;;;;;;;;;;;20.62;51.62;101399.22;7253268;19;155630;-57
2022/11/05 03:22:36;;;;;;;;;;;;;;;20.61;51.74;101401.19;7255798;19;156322;-55
2022/11/05 03:25:15;;;;;;;;;;;;;;;20.59;51.66;101395.00;7262846;19;155220;-55
2022/11/05 03:27:44;;;;;;;;;;;;;;;20.58;52.02;101390.53;7256958;19;154098;-55
2022/11/05 03:30:11;;;;;;;;;;;;;;;20.56;51.66;101389.16;7256151;19;153952;-55
2022/11/05 03:32:41;;;;;;;;;;;;;;;20.55;52.15;101391.13;7258556;19;152237;-55
2022/11/05 03:35:12;;;;;;;;;;;;;;;20.54;52.24;101386.66;7257231;19;154662;-55
2022/11/05 03:37:40;;;;;;;;;;;;;;;20.53;51.90;101379.38;7257280;19;154034;-55
2022/11/05 03:40:09;;;;;;;;;;;;;;;20.52;52.00;101377.69;7259087;19;153055;-56
2022/11/05 03:42:37;;;;;;;;;;;;;;;20.51;52.35;101373.22;7254159;19;152889;-56
2022/11/05 03:45:08;;;;;;;;;;;;;;;20.50;52.25;101374.34;7263842;19;153661;-56
2022/11/05 03:47:37;;;;;;;;;;;;;;;20.48;52.33;101378.59;7259423;19;153993;-55
2022/11/05 03:50:10;;;;;;;;;;;;;;;20.46;52.62;101366.81;7254631;19;152307;-55
2022/11/05 03:52:42;;;;;;;;;;;;;;;20.45;52.41;101373.56;7258770;19;153215;-55
2022/11/05 03:55:09;;;;;;;;;;;;;;;20.44;52.64;101371.91;7256250;19;154285;-55
2022/11/05 03:57:39;;;;;;;;;;;;;;;20.42;52.36;101366.56;7257224;19;153657;-56
2022/11/05 04:00:08;;;;;;;;;;;;;;;20.40;52.67;101364.06;7249968;19;154778;-56
2022/11/05 04:02:36;;;;;;;;;;;;;;;20.38;52.59;101357.09;7255881;19;153663;-55
2022/11/05 04:05:04;;;;;;;;;;;;;;;20.39;52.22;101365.22;7255122;19;154000;-55
2022/11/05 04:15:21;;;;;;;;;;;;;;;20.34;52.91;101353.19;7253596;19;154132;-55
2022/11/05 04:17:48;;;;;;;;;;;;;;;20.33;52.85;101357.13;7254840;19;154510;-56
2022/11/05 04:25:36;;;;;;;;;;;;;;;20.27;52.62;101361.94;7256725;19;153507;-56
2022/11/05 04:28:03;;;;;;;;;;;;;;;20.27;52.89;101364.72;7254433;19;153612;-56
2022/11/05 04:30:30;;;;;;;;;;;;;;;20.25;52.84;101367.03;7257868;19;154165;-56
2022/11/05 04:33:06;;;;;;;;;;;;;;;20.24;53.06;101379.38;7249802;19;153300;-55
2022/11/05 04:35:33;;;;;;;;;;;;;;;20.24;52.54;101376.56;7253482;19;154424;-55
2022/11/05 04:38:00;;;;;;;;;;;;;;;20.21;52.55;101367.91;7258400;19;153501;-56
2022/11/05 04:40:28;;;;;;;;;;;;;;;20.20;52.90;101381.09;7254900;19;153324;-56
2022/11/05 04:42:55;;;;;;;;;;;;;;;20.18;52.68;101386.16;7251821;19;154814;-56
2022/11/05 04:45:22;;;;;;;;;;;;;;;20.17;52.68;101376.06;7255459;19;153596;-56
2022/11/05 04:47:49;;;;;;;;;;;;;;;20.16;52.90;101379.19;7258513;19;154364;-56
2022/11/05 04:50:16;;;;;;;;;;;;;;;20.15;53.21;101375.53;7251455;19;156037;-56
2022/11/05 04:52:42;;;;;;;;;;;;;;;20.13;53.07;101368.53;7264639;19;152628;-56
2022/11/05 04:55:09;;;;;;;;;;;;;;;20.12;52.83;101366.88;7255564;19;154027;-56
2022/11/05 04:57:36;;;;;;;;;;;;;;;20.10;52.86;101367.16;7255051;19;153599;-56
2022/11/05 05:00:04;;;;;;;;;;;;;;;20.10;53.24;101371.94;7252114;19;154203;-56
2022/11/05 05:02:31;;;;;;;;;;;;;;;20.09;53.07;101364.63;7252757;19;154505;-55
2022/11/05 05:04:58;;;;;;;;;;;;;;;20.09;53.17;101356.22;7253106;19;153554;-55
2022/11/05 05:07:25;;;;;;;;;;;;;;;20.06;53.24;101356.81;7256478;19;154196;-56
2022/11/05 05:09:53;;;;;;;;;;;;;;;20.05;53.41;101355.16;7253641;19;154131;-56
2022/11/05 05:12:21;;;;;;;;;;;;;;;20.04;53.37;101357.09;7254596;19;153830;-56
2022/11/05 05:14:48;;;;;;;;;;;;;;;20.04;53.53;101347.84;7258421;19;154225;-56
2022/11/05 05:17:15;;;;;;;;;;;;;;;20.04;53.22;101354.31;7254243;19;154450;-55
2022/11/05 05:22:19;;;;;;;;;;;;;;;20.02;53.45;101345.38;7256459;19;155442;-56
2022/11/05 05:24:46;;;;;;;;;;;;;;;20.01;53.30;101340.03;7255646;19;153257;-56
2022/11/05 05:27:18;;;;;;;;;;;;;;;20.00;53.29;101344.81;7254357;19;152723;-57
2022/11/05 05:29:45;;;;;;;;;;;;;;;19.98;53.28;101347.94;7253356;19;154668;-56
2022/11/05 05:32:11;;;;;;;;;;;;;;;19.95;53.29;101337.28;7255282;19;153884;-56
2022/11/05 05:34:38;;;;;;;;;;;;;;;19.94;53.62;101346.00;7255870;19;153889;-56
2022/11/05 05:37:05;;;;;;;;;;;;;;;19.94;53.30;101337.59;7260908;19;154422;-56
2022/11/05 05:39:32;;;;;;;;;;;;;;;19.93;53.30;101335.91;7254930;19;152599;-56
2022/11/05 05:41:59;;;;;;;;;;;;;;;19.92;53.17;101339.84;7253335;19;154657;-55
2022/11/05 05:44:26;;;;;;;;;;;;;;;19.90;53.53;101325.28;7251494;19;153943;-56
2022/11/05 05:46:54;;;;;;;;;;;;;;;19.89;53.29;101332.03;7255952;19;154463;-56
2022/11/05 05:49:21;;;;;;;;;;;;;;;19.87;53.54;101337.94;7250804;19;153644;-55
2022/11/05 05:51:48;;;;;;;;;;;;;;;19.85;53.29;101334.56;7250453;19;154324;-55
2022/11/05 05:54:15;;;;;;;;;;;;;;;19.85;53.55;101340.16;7254346;19;154862;-55
2022/11/05 05:56:43;;;;;;;;;;;;;;;19.83;53.33;101336.00;7261613;19;154686;-55
2022/11/05 05:59:10;;;;;;;;;;;;;;;19.82;53.32;101331.53;7251946;19;154033;-56
2022/11/05 06:01:37;;;;;;;;;;;;;;;19.81;53.56;101333.47;7252157;19;154965;-55
2022/11/05 06:04:04;;;;;;;;;;;;;;;19.81;53.48;101325.06;7252402;19;153037;-55
2022/11/05 06:06:31;;;;;;;;;;;;;;;19.80;53.73;101326.22;7251824;19;154563;-56
2022/11/05 06:08:58;;;;;;;;;;;;;;;19.79;53.70;101330.16;7250470;19;153679;-55
2022/11/05 06:11:25;;;;;;;;;;;;;;;19.78;53.40;101319.22;7250527;19;154450;-56
2022/11/05 06:13:52;;;;;;;;;;;;;;;19.78;53.89;101328.47;7252252;19;153683;-56
2022/11/05 06:16:19;;;;;;;;;;;;;;;19.77;53.76;101332.41;7250505;19;154160;-55
2022/11/05 06:18:46;;;;;;;;;;;;;;;19.75;53.91;101334.69;7261627;19;153752;-56
2022/11/05 06:21:14;;;;;;;;;;;;;;;19.75;53.88;101322.63;7248966;19;153350;-55
2022/11/05 06:23:42;;;;;;;;;;;;;;;19.73;53.72;101327.69;7252942;19;153203;-55
2022/11/05 06:26:11;;;;;;;;;;;;;;;19.73;53.60;101322.06;7250909;19;154060;-55
2022/11/05 06:28:40;;;;;;;;;;;;;;;19.71;53.53;101316.78;7248936;19;153731;-55
2022/11/05 06:31:08;;;;;;;;;;;;;;;19.71;53.68;101319.59;7249785;19;151960;-55
2022/11/05 06:33:35;;;;;;;;;;;;;;;19.70;53.54;101317.91;7254273;19;154056;-56
2022/11/05 06:36:03;;;;;;;;;;;;;;;19.69;53.94;101318.19;7248954;19;154747;-55
2022/11/05 06:38:32;;;;;;;;;;;;;;;19.69;53.55;101321.00;7252981;19;154171;-55
2022/11/05 06:40:59;;;;;;;;;;;;;;;19.67;53.79;101312.84;7259594;19;155610;-55
2022/11/05 06:43:31;;;;;;;;;;;;;;;19.67;53.76;101315.66;7248999;19;154440;-55
2022/11/05 06:45:59;;;;;;;;;;;;;;;19.66;53.73;101314.00;7251002;19;154496;-55
2022/11/05 06:48:27;;;;;;;;;;;;;;;19.66;53.83;101313.19;7249942;19;154127;-56
2022/11/05 06:50:54;;;;;;;;;;;;;;;19.66;53.90;101322.44;7250932;19;154201;-56
2022/11/05 06:53:21;;;;;;;;;;;;;;;19.66;53.83;101314.00;7251759;19;153397;-56
2022/11/05 06:55:48;;;;;;;;;;;;;;;19.66;54.47;101313.19;7258544;19;153888;-56
2022/11/05 06:58:15;;;;;;;;;;;;;;;19.65;54.50;101306.72;7258737;19;152976;-56
2022/11/05 07:00:42;;;;;;;;;;;;;;;19.64;55.27;101313.47;7260211;19;153649;-56
2022/11/05 07:03:09;;;;;;;;;;;;;;;19.63;55.58;101314.59;7269098;19;155739;-56
2022/11/05 07:05:40;;;;;;;;;;;;;;;19.65;56.03;101308.69;7259029;19;154374;-56
2022/11/05 07:08:07;;;;;;;;;;;;;;;19.68;56.08;101313.69;7257795;19;153099;-56
2022/11/05 07:10:34;;;;;;;;;;;;;;;19.72;56.22;101317.59;7258427;19;154005;-56
2022/11/05 07:13:01;;;;;;;;;;;;;;;19.75;55.52;101317.03;7258091;19;154273;-56
2022/11/05 07:15:33;;;;;;;;;;;;;;;19.79;55.80;101318.94;7257227;19;154431;-56
2022/11/05 07:18:00;;;;;;;;;;;;;;;19.83;55.59;101310.78;7258724;19;153995;-56
2022/11/05 07:20:27;;;;;;;;;;;;;;;19.87;56.15;101307.06;7259130;19;154034;-56
2022/11/05 07:23:03;;;;;;;;;;;;;;;19.93;55.94;101305.06;7258529;19;155606;-56
2022/11/05 07:25:31;;;;;;;;;;;;;;;19.95;56.27;101309.22;7266689;19;153362;-56
2022/11/05 07:27:58;;;;;;;;;;;;;;;20.00;56.15;101299.94;7254383;19;154170;-56
2022/11/05 07:30:25;;;;;;;;;;;;;;;20.05;56.44;101307.47;7258412;19;155137;-56
2022/11/05 07:32:51;;;;;;;;;;;;;;;20.09;56.25;101295.34;7258074;19;153023;-56
2022/11/05 07:35:18;;;;;;;;;;;;;;;20.13;56.48;101298.38;7257569;19;153512;-55
2022/11/05 07:37:46;;;;;;;;;;;;;;;20.17;56.54;101300.31;7260764;19;153010;-56
2022/11/05 07:40:14;;;;;;;;;;;;;;;20.22;56.08;101299.41;7258319;19;154924;-56
2022/11/05 07:42:42;;;;;;;;;;;;;;;20.25;56.15;101302.47;7252990;19;153333;-56
2022/11/05 07:45:09;;;;;;;;;;;;;;;20.30;56.16;101302.47;7264799;19;153340;-56
2022/11/05 07:47:38;;;;;;;;;;;;;;;20.35;56.39;101302.38;7258948;19;155761;-56
2022/11/05 07:50:06;;;;;;;;;;;;;;;20.38;56.33;101303.75;7256127;19;153717;-56
2022/11/05 07:52:33;;;;;;;;;;;;;;;20.42;56.11;101300.06;7257127;19;152830;-56
2022/11/05 07:55:00;;;;;;;;;;;;;;;20.48;56.13;101302.81;7256968;19;156749;-56
2022/11/05 07:57:27;;;;;;;;;;;;;;;20.53;56.38;101308.34;7258441;19;153600;-56
2022/11/05 07:59:54;;;;;;;;;;;;;;;20.57;56.15;101313.06;7256298;19;153924;-56
2022/11/05 08:02:20;;;;;;;;;;;;;;;20.62;56.46;101317.78;7255696;19;153841;-56
2022/11/05 08:04:48;;;;;;;;;;;;;;;20.66;56.03;101314.09;7257936;19;153547;-56
2022/11/05 08:07:14;;;;;;;;;;;;;;;20.71;56.44;101313.19;7261579;19;153821;-56
2022/11/05 08:09:41;;;;;;;;;;;;;;;20.76;56.08;101315.91;7258610;19;154244;-56
2022/11/05 08:12:08;;;;;;;;;;;;;;;20.78;56.43;101314.47;7257487;19;154008;-56
2022/11/05 08:14:35;;;;;;;;;;;;;;;20.82;56.03;101309.91;7254048;19;154529;-56
2022/11/05 08:17:01;;;;;;;;;;;;;;;20.90;56.47;101324.41;7258698;19;152886;-54
2022/11/05 08:19:28;;;;;;;;;;;;;;;20.94;56.36;101317.88;7256529;19;155422;-55
2022/11/05 08:21:55;;;;;;;;;;;;;;;20.98;56.25;101315.34;7257861;19;152661;-56
2022/11/05 08:24:22;;;;;;;;;;;;;;;21.03;56.10;101315.28;7255815;19;154839;-56
2022/11/05 08:26:49;;;;;;;;;;;;;;;21.05;56.34;101305.38;7257479;19;154814;-56
2022/11/05 08:29:15;;;;;;;;;;;;;;;21.09;56.02;101314.03;7261525;19;153925;-56
2022/11/05 08:31:42;;;;;;;;;;;;;;;21.13;55.87;101309.50;7256591;19;153556;-57
2022/11/05 08:34:09;;;;;;;;;;;;;;;21.16;55.80;101314.53;7255573;19;154472;-56
2022/11/05 08:36:36;;;;;;;;;;;;;;;21.18;55.73;101309.44;7257736;19;153600;-56
2022/11/05 08:39:03;;;;;;;;;;;;;;;21.21;56.01;101312.47;7255078;19;155396;-56
2022/11/05 08:41:29;;;;;;;;;;;;;;;21.25;56.01;101307.09;7254012;19;155864;-56
2022/11/05 08:43:56;;;;;;;;;;;;;;;21.28;55.55;101312.09;7256083;19;153028;-56
2022/11/05 08:46:23;;;;;;;;;;;;;;;21.30;55.20;101310.63;7257153;19;154412;-56
2022/11/05 08:48:50;;;;;;;;;;;;;;;21.34;55.01;101310.88;7253898;19;153151;-57
2022/11/05 08:51:18;;;;;;;;;;;;;;;21.33;54.79;101306.41;7260417;19;153639;-56
2022/11/05 08:53:45;;;;;;;;;;;;;;;21.35;55.25;101309.72;7256454;19;153421;-57
2022/11/05 08:56:11;;;;;;;;;;;;;;;21.37;54.95;101304.66;7256807;19;154435;-56
2022/11/05 08:58:38;;;;;;;;;;;;;;;21.39;55.36;101305.19;7256676;19;153671;-56
2022/11/05 09:01:05;;;;;;;;;;;;;;;21.42;55.20;101306.53;7255687;19;155777;-56
2022/11/05 09:03:32;;;;;;;;;;;;;;;21.45;55.29;101297.47;7255511;19;152908;-56
2022/11/05 09:05:59;;;;;;;;;;;;;;;21.48;55.26;101294.91;7256780;19;154408;-57
2022/11/05 09:08:26;;;;;;;;;;;;;;;21.51;55.25;101294.28;7256137;19;153341;-57
2022/11/05 09:10:53;;;;;;;;;;;;;;;21.54;55.57;101287.22;7253872;19;153547;-57
2022/11/05 09:13:20;;;;;;;;;;;;;;;21.56;55.42;101288.59;7261283;19;154330;-56
2022/11/05 09:15:48;;;;;;;;;;;;;;;21.60;55.49;101292.47;7252160;19;154704;-56
2022/11/05 09:18:15;;;;;;;;;;;;;;;21.63;55.55;101289.00;7256029;19;155211;-56
2022/11/05 09:20:45;;;;;;;;;;;;;;;21.66;54.98;101282.78;7252196;19;154404;-57
2022/11/05 09:23:13;;;;;;;;;;;;;;;21.70;54.96;101288.63;7254406;19;153147;-55
2022/11/05 09:25:40;;;;;;;;;;;;;;;21.72;55.29;101273.09;7253671;19;152650;-56
2022/11/05 09:28:10;;;;;;;;;;;;;;;21.74;55.08;101270.00;7254066;19;153806;-56
2022/11/05 09:30:43;;;;;;;;;;;;;;;21.75;54.71;101266.03;7254612;19;154780;-55
2022/11/05 09:33:09;;;;;;;;;;;;;;;21.78;55.17;101270.22;7251749;19;154562;-56
2022/11/05 09:35:38;;;;;;;;;;;;;;;21.79;54.95;101267.09;7260798;19;154779;-55
2022/11/05 09:38:06;;;;;;;;;;;;;;;21.80;54.88;101265.97;7260290;19;153213;-55
2022/11/05 09:40:36;;;;;;;;;;;;;;;21.82;54.95;101260.84;7257477;19;154451;-55
2022/11/05 09:43:04;;;;;;;;;;;;;;;21.84;54.78;101252.09;7254352;19;154534;-56
2022/11/05 09:45:32;;;;;;;;;;;;;;;21.83;54.84;101250.44;7254781;19;153479;-56
2022/11/05 09:48:02;;;;;;;;;;;;;;;21.86;54.56;101244.16;7256407;19;153532;-56
2022/11/05 09:50:32;;;;;;;;;;;;;;;21.87;54.97;101251.47;7254738;19;152327;-56
2022/11/05 09:52:59;;;;;;;;;;;;;;;21.86;54.58;101250.63;7249213;19;153316;-56
2022/11/05 09:55:30;;;;;;;;;;;;;;;21.87;54.42;101240.22;7236702;19;158321;-56
2022/11/05 09:57:59;;;;;;;;;;;;;;;21.85;54.14;101239.72;7252124;19;152216;-56
2022/11/05 10:00:27;;;;;;;;;;;;;;;21.85;54.48;101246.13;7253945;19;154354;-56
2022/11/05 10:02:56;;;;;;;;;;;;;;;21.84;54.03;101241.69;7249796;19;153076;-56
2022/11/05 10:05:24;;;;;;;;;;;;;;;21.83;54.04;101233.53;7255359;19;153378;-56
2022/11/05 10:07:57;;;;;;;;;;;;;;;21.82;54.17;101237.50;7250270;19;152641;-56
2022/11/05 10:10:30;;;;;;;;;;;;;;;21.82;53.98;101238.34;7253759;19;152655;-56
2022/11/05 10:13:11;;;;;;;;;;;;;;;21.83;54.36;101239.16;7251844;19;154334;-56
2022/11/05 10:15:41;;;;;;;;;;;;;;;21.85;54.23;101243.34;7252877;19;156155;-56
2022/11/05 10:18:17;;;;;;;;;;;;;;;21.89;54.53;101237.94;7262566;19;153115;-56
2022/11/05 10:20:44;;;;;;;;;;;;;;;21.92;54.71;101235.34;7252966;19;154639;-56
2022/11/05 10:23:13;;;;;;;;;;;;;;;21.94;54.41;101229.44;7250924;19;152960;-55
2022/11/05 10:25:42;;;;;;;;;;;;;;;21.88;53.97;101222.19;7251108;19;154383;-54
2022/11/05 10:28:13;;;;;;;;;;;;;;;21.86;53.15;101205.63;7250214;19;153194;-55
2022/11/05 10:30:41;;;;;;;;;;;;;;;21.91;53.15;101208.34;7246422;19;153527;-55
2022/11/05 10:33:10;;;;;;;;;;;;;;;21.92;52.91;101200.75;7255661;19;154393;-55
2022/11/05 10:35:45;;;;;;;;;;;;;;;21.93;52.39;101206.09;7253489;19;154634;-55
2022/11/05 10:38:13;;;;;;;;;;;;;;;21.89;52.55;101204.19;7257538;19;153545;-55
2022/11/05 10:40:41;;;;;;;;;;;;;;;21.84;52.34;101195.84;7258098;19;154098;-55
2022/11/05 10:43:17;;;;;;;;;;;;;;;21.87;52.06;101200.84;7252115;19;153304;-55
2022/11/05 10:45:51;;;;;;;;;;;;;;;21.85;51.96;101189.06;7253183;19;154074;-55
2022/11/05 10:48:21;;;;;;;;;;;;;;;21.85;51.89;101177.81;7249870;19;153532;-55
2022/11/05 10:50:47;;;;;;;;;;;;;;;21.84;51.67;101184.59;7252962;19;153473;-55
2022/11/05 10:53:15;;;;;;;;;;;;;;;21.81;51.58;101179.56;7247605;19;153934;-55
2022/11/05 10:55:45;;;;;;;;;;;;;;;21.80;51.92;101167.50;7243310;19;154055;-55
2022/11/05 10:58:16;;;;;;;;;;;;;;;21.81;51.95;101169.16;7244535;19;153838;-55
2022/11/05 11:00:44;;;;;;;;;;;;;;;21.82;51.46;101170.00;7250655;19;153317;-55
2022/11/05 11:03:31;;;;;;;;;;;;;;;21.80;51.60;101161.88;7257016;19;153930;-54
2022/11/05 11:05:59;;;;;;;;;;;;;;;21.78;51.68;101161.34;7247761;19;155360;-54
2022/11/05 11:08:27;;;;;;;;;;;;;;;21.76;51.48;101160.81;7252934;19;156267;-55
2022/11/05 11:10:56;;;;;;;;;;;;;;;21.75;51.66;101153.53;7254066;19;153266;-55
2022/11/05 11:13:26;;;;;;;;;;;;;;;21.74;51.71;101152.72;7246489;19;154672;-55
2022/11/05 11:15:53;;;;;;;;;;;;;;;21.73;51.47;101148.22;7246784;19;153627;-55
2022/11/05 11:18:29;;;;;;;;;;;;;;;21.71;51.71;101132.81;7249054;19;153097;-55
2022/11/05 11:21:06;;;;;;;;;;;;;;;21.70;51.78;101128.31;7249347;19;154194;-55
2022/11/05 11:23:37;;;;;;;;;;;;;;;21.69;51.48;101121.88;7247574;19;154230;-55
2022/11/05 11:26:04;;;;;;;;;;;;;;;21.69;51.76;101126.66;7255670;19;153513;-55
2022/11/05 11:28:31;;;;;;;;;;;;;;;21.66;52.06;101114.06;7248521;19;154784;-56
2022/11/05 11:31:08;;;;;;;;;;;;;;;21.66;51.90;101118.84;7249551;19;153140;-55
2022/11/05 11:33:36;;;;;;;;;;;;;;;21.64;52.12;101130.41;7223239;19;154741;-56
2022/11/05 11:36:04;;;;;;;;;;;;;;;21.62;52.20;101132.69;7242488;19;153773;-55
2022/11/05 11:38:33;;;;;;;;;;;;;;;21.61;51.92;101124.56;7248869;19;151844;-55
2022/11/05 11:41:19;;;;;;;;;;;;;;;21.59;52.11;101127.69;7253640;19;152643;-55
2022/11/05 11:43:47;;;;;;;;;;;;;;;21.56;51.66;101119.88;7252843;19;153821;-55
2022/11/05 11:46:16;;;;;;;;;;;;;;;21.55;51.71;101121.03;7256459;19;152340;-55
2022/11/05 11:48:46;;;;;;;;;;;;;;;21.54;51.83;101119.34;7262527;19;153316;-54
2022/11/05 11:51:17;;;;;;;;;;;;;;;21.53;51.74;101125.31;7255113;19;153495;-55
2022/11/05 11:53:49;;;;;;;;;;;;;;;21.51;51.77;101113.53;7256995;19;155166;-54
2022/11/05 11:56:18;;;;;;;;;;;;;;;21.49;52.14;101115.81;7253300;19;153905;-55
2022/11/05 11:58:47;;;;;;;;;;;;;;;21.49;51.80;101111.00;7251117;19;154055;-54
2022/11/05 12:01:14;;;;;;;;;;;;;;;21.46;52.05;101105.19;7254734;19;153334;-55
2022/11/05 12:03:48;;;;;;;;;;;;;;;21.44;52.20;101116.72;7256543;19;154416;-55
2022/11/05 12:06:24;;;;;;;;;;;;;;;21.43;52.29;101106.66;7255124;19;153746;-55
2022/11/05 12:09:01;;;;;;;;;;;;;;;21.43;51.80;101105.81;7261755;19;153537;-55
2022/11/05 12:11:41;;;;;;;;;;;;;;;21.40;52.09;101112.88;7257237;19;154804;-55
2022/11/05 12:14:22;;;;;;;;;;;;;;;21.42;52.24;101101.34;7252919;19;156082;-55
2022/11/05 12:16:50;;;;;;;;;;;;;;;21.41;52.17;101096.84;7254127;19;156380;-55
2022/11/05 12:19:27;;;;;;;;;;;;;;;21.42;52.14;101084.47;7253684;19;152345;-55
2022/11/05 12:21:55;;;;;;;;;;;;;;;21.40;52.05;101084.75;7255630;19;153471;-55
2022/11/05 12:24:31;;;;;;;;;;;;;;;21.36;52.25;101080.91;7252156;19;154761;-55
2022/11/05 12:27:09;;;;;;;;;;;;;;;21.35;52.01;101076.44;7254128;19;152121;-55
2022/11/05 12:29:46;;;;;;;;;;;;;;;21.36;52.01;101071.66;7256245;19;153991;-55
2022/11/05 12:32:22;;;;;;;;;;;;;;;21.35;52.02;101053.13;7264705;19;152903;-55
2022/11/05 12:34:57;;;;;;;;;;;;;;;21.32;52.53;101060.19;7251560;19;155304;-54
2022/11/05 12:37:33;;;;;;;;;;;;;;;21.32;52.31;101059.38;7256350;19;153418;-54
2022/11/05 12:40:03;;;;;;;;;;;;;;;21.28;52.39;101056.34;7253542;19;153291;-54
2022/11/05 12:42:33;;;;;;;;;;;;;;;21.28;52.77;101045.09;7255543;19;154819;-54
2022/11/05 12:45:14;;;;;;;;;;;;;;;21.28;52.57;101037.50;7255005;19;154362;-54
2022/11/05 12:47:51;;;;;;;;;;;;;;;21.27;52.93;101029.38;7255788;19;154252;-55
2022/11/05 12:50:18;;;;;;;;;;;;;;;21.26;52.84;101022.94;7255067;19;153227;-55
2022/11/05 12:52:48;;;;;;;;;;;;;;;21.27;52.57;101018.13;7253096;19;154689;-55
2022/11/05 12:55:18;;;;;;;;;;;;;;;21.26;52.65;101008.03;7263713;19;153185;-55
2022/11/05 12:57:47;;;;;;;;;;;;;;;21.26;52.83;101002.41;7256197;19;153754;-55
2022/11/05 13:00:15;;;;;;;;;;;;;;;21.23;52.70;100998.28;7252476;19;154291;-55
2022/11/05 13:02:51;;;;;;;;;;;;;;;21.19;52.95;100988.78;7257693;19;153718;-55
2022/11/05 13:05:28;;;;;;;;;;;;;;;21.17;52.96;100984.63;7251770;19;155205;-55
2022/11/05 13:08:06;;;;;;;;;;;;;;;21.15;53.29;100981.31;7255235;19;154833;-55
2022/11/05 13:10:36;;;;;;;;;;;;;;;21.14;53.73;100983.28;7255547;19;153606;-55
2022/11/05 13:13:10;;;;;;;;;;;;;;;21.16;53.35;100991.41;7248570;19;153455;-55
2022/11/05 13:15:42;;;;;;;;;;;;;;;21.16;53.56;100988.59;7252662;19;153809;-54
2022/11/05 13:18:13;;;;;;;;;;;;;;;21.19;53.90;100980.38;7262835;19;154418;-54
2022/11/05 13:20:43;;;;;;;;;;;;;;;21.19;53.56;100979.53;7248867;19;153734;-54